Time;durP1;ratioP1;P1;durP2;ratioP2;P2;SDS_P1;SDS_P2;PMS_P1;PMS_P2;Temp;Humidity;BMP_temperature;BMP_pressure;BME280_temperature;BME280_humidity;BME280_pressure;Samples;Min_cycle;Max_cycle;Signal;HPM_P1;HPM_P2
2022/03/31 00:00:44;;;;;;;46.80;28.00;;;;;;;;;;5075343;28;20831;-72
2022/03/31 00:03:11;;;;;;;43.27;27.87;;;;;;;;;;5075176;28;20417;-72
2022/03/31 00:05:37;;;;;;;42.30;27.50;;;;;;;;;;5075529;28;20524;-72
2022/03/31 00:08:06;;;;;;;42.90;28.40;;;;;;;;;;5074424;28;20417;-72
2022/03/31 00:10:35;;;;;;;49.97;30.50;;;;;;;;;;5074988;28;20418;-72
2022/03/31 00:13:02;;;;;;;42.90;27.30;;;;;;;;;;5075063;28;20463;-72
2022/03/31 00:15:28;;;;;;;42.23;28.33;;;;;;;;;;5074921;28;20937;-72
2022/03/31 00:17:55;;;;;;;44.50;27.30;;;;;;;;;;5074957;28;20431;-72
2022/03/31 00:20:21;;;;;;;45.70;29.77;;;;;;;;;;5074775;28;20465;-72
2022/03/31 00:22:47;;;;;;;45.53;28.87;;;;;;;;;;5074872;28;20475;-71
2022/03/31 00:25:13;;;;;;;43.97;28.57;;;;;;;;;;5074827;28;20914;-72
2022/03/31 00:27:40;;;;;;;52.13;28.27;;;;;;;;;;5075150;28;20424;-71
2022/03/31 00:30:07;;;;;;;45.23;28.13;;;;;;;;;;5074486;28;20777;-72
2022/03/31 00:32:33;;;;;;;39.70;27.93;;;;;;;;;;5074959;28;20405;-72
2022/03/31 00:35:00;;;;;;;40.63;27.77;;;;;;;;;;5074808;28;20413;-71
2022/03/31 00:37:27;;;;;;;52.67;27.67;;;;;;;;;;5074724;28;20409;-72
2022/03/31 00:39:53;;;;;;;45.60;27.57;;;;;;;;;;5074338;28;20492;-71
2022/03/31 00:42:19;;;;;;;48.77;27.67;;;;;;;;;;5074335;28;20929;-72
2022/03/31 00:44:45;;;;;;;47.50;28.00;;;;;;;;;;5074632;28;20477;-71
2022/03/31 00:47:12;;;;;;;42.70;27.20;;;;;;;;;;5074518;28;20422;-72
2022/03/31 00:49:38;;;;;;;41.67;28.13;;;;;;;;;;5074257;28;20405;-72
2022/03/31 00:52:05;;;;;;;39.50;25.30;;;;;;;;;;5074270;28;20608;-72
2022/03/31 00:54:32;;;;;;;40.17;26.67;;;;;;;;;;5074258;28;20418;-72
2022/03/31 00:56:59;;;;;;;42.73;26.23;;;;;;;;;;5074390;28;20409;-72
2022/03/31 00:59:26;;;;;;;48.13;28.67;;;;;;;;;;5074177;28;20472;-72
2022/03/31 01:01:52;;;;;;;42.20;25.77;;;;;;;;;;5074381;28;20413;-72
2022/03/31 01:04:17;;;;;;;47.40;26.27;;;;;;;;;;5056145;28;20425;-72
2022/03/31 01:06:44;;;;;;;46.77;28.63;;;;;;;;;;5074793;28;20475;-72
2022/03/31 01:09:11;;;;;;;49.63;30.00;;;;;;;;;;5073638;28;20808;-71
2022/03/31 01:11:38;;;;;;;47.77;28.50;;;;;;;;;;5074110;28;20417;-72
2022/03/31 01:14:04;;;;;;;46.27;27.27;;;;;;;;;;5074144;28;20417;-72
2022/03/31 01:16:30;;;;;;;51.10;27.83;;;;;;;;;;5074071;28;20435;-72
2022/03/31 01:18:57;;;;;;;35.37;24.30;;;;;;;;;;5073641;28;20429;-71
2022/03/31 01:21:23;;;;;;;44.80;25.47;;;;;;;;;;5073807;28;20426;-72
2022/03/31 01:23:49;;;;;;;40.77;26.40;;;;;;;;;;5073740;28;20405;-71
2022/03/31 01:26:20;;;;;;;43.77;27.30;;;;;;;;;;5073470;28;20571;-72
2022/03/31 01:28:46;;;;;;;43.60;28.47;;;;;;;;;;5074004;28;20421;-72
2022/03/31 01:31:13;;;;;;;47.73;27.63;;;;;;;;;;5073527;28;20488;-71
2022/03/31 01:33:41;;;;;;;56.23;27.47;;;;;;;;;;5073767;28;20412;-72
2022/03/31 01:36:07;;;;;;;42.67;27.53;;;;;;;;;;5073533;28;20409;-72
2022/03/31 01:38:33;;;;;;;46.83;29.20;;;;;;;;;;5073585;28;20421;-72
2022/03/31 01:40:59;;;;;;;46.43;29.87;;;;;;;;;;5073179;28;20469;-72
2022/03/31 01:43:25;;;;;;;48.87;28.93;;;;;;;;;;5073439;28;20479;-72
2022/03/31 01:45:52;;;;;;;44.90;27.20;;;;;;;;;;5073693;28;20410;-72
2022/03/31 01:48:19;;;;;;;41.97;27.23;;;;;;;;;;5073377;28;20413;-72
2022/03/31 01:50:45;;;;;;;54.93;29.90;;;;;;;;;;5072876;28;20402;-72
2022/03/31 01:53:11;;;;;;;43.70;28.43;;;;;;;;;;5073169;28;20452;-71
2022/03/31 01:55:39;;;;;;;39.20;26.87;;;;;;;;;;5073163;28;20424;-71
2022/03/31 01:58:05;;;;;;;45.23;27.80;;;;;;;;;;5073108;28;20421;-72
2022/03/31 02:00:31;;;;;;;45.20;27.63;;;;;;;;;;5073389;28;20469;-71
2022/03/31 02:02:56;;;;;;;51.03;31.03;;;;;;;;;;5073334;28;20421;-72
2022/03/31 02:05:23;;;;;;;44.47;28.47;;;;;;;;;;5073657;28;20891;-72
2022/03/31 02:07:53;;;;;;;51.70;28.97;;;;;;;;;;5072874;28;20500;-72
2022/03/31 02:10:18;;;;;;;43.17;27.30;;;;;;;;;;5073080;28;20425;-71
2022/03/31 02:12:44;;;;;;;47.10;28.53;;;;;;;;;;5073277;28;20418;-72
2022/03/31 02:15:11;;;;;;;44.37;27.57;;;;;;;;;;5054918;28;20486;-72
2022/03/31 02:17:37;;;;;;;47.43;28.10;;;;;;;;;;5073256;28;20496;-72
2022/03/31 02:20:03;;;;;;;43.17;28.77;;;;;;;;;;5073007;28;20883;-72
2022/03/31 02:22:29;;;;;;;47.30;27.77;;;;;;;;;;5073102;28;20505;-72
2022/03/31 02:24:55;;;;;;;44.70;27.60;;;;;;;;;;5073217;28;20449;-71
2022/03/31 02:27:22;;;;;;;49.70;29.30;;;;;;;;;;5072801;28;20450;-72
2022/03/31 02:29:48;;;;;;;62.10;30.80;;;;;;;;;;5072906;28;20413;-72
2022/03/31 02:32:14;;;;;;;47.20;30.37;;;;;;;;;;5075088;28;20804;-72
2022/03/31 02:34:40;;;;;;;43.63;25.77;;;;;;;;;;5076916;28;20421;-72
2022/03/31 02:37:06;;;;;;;50.37;30.60;;;;;;;;;;5076839;28;20409;-72
2022/03/31 02:39:32;;;;;;;46.10;30.00;;;;;;;;;;5077219;28;20461;-72
2022/03/31 02:42:00;;;;;;;51.53;29.13;;;;;;;;;;5076917;28;20425;-72
2022/03/31 02:44:26;;;;;;;49.53;27.73;;;;;;;;;;5076985;28;20412;-72
2022/03/31 02:46:52;;;;;;;45.97;29.50;;;;;;;;;;5077004;28;20418;-72
2022/03/31 02:49:18;;;;;;;43.53;26.50;;;;;;;;;;5076911;28;20869;-72
2022/03/31 02:51:44;;;;;;;47.97;28.37;;;;;;;;;;5076692;28;20418;-72
2022/03/31 02:56:56;;;;;;;37.40;25.67;;;;;;;;;;5076870;28;20797;-72
2022/03/31 02:59:22;;;;;;;47.37;30.87;;;;;;;;;;5076954;28;20468;-72
2022/03/31 03:01:48;;;;;;;52.10;31.00;;;;;;;;;;5076187;28;20432;-72
2022/03/31 03:04:14;;;;;;;42.73;29.00;;;;;;;;;;5076531;28;20417;-71
2022/03/31 03:06:41;;;;;;;54.40;28.87;;;;;;;;;;5076598;28;20420;-72
2022/03/31 03:09:07;;;;;;;46.20;30.43;;;;;;;;;;5076188;28;20417;-71
2022/03/31 03:11:33;;;;;;;51.17;28.63;;;;;;;;;;5075915;28;20788;-72
2022/03/31 03:14:00;;;;;;;45.47;28.17;;;;;;;;;;5058171;28;20508;-71
2022/03/31 03:16:26;;;;;;;51.73;28.40;;;;;;;;;;5076207;28;20413;-72
2022/03/31 03:18:52;;;;;;;48.03;29.20;;;;;;;;;;5076053;28;20884;-72
2022/03/31 03:21:19;;;;;;;46.27;29.20;;;;;;;;;;5076240;28;20463;-72
2022/03/31 03:23:45;;;;;;;48.67;30.27;;;;;;;;;;5075919;28;20916;-71
2022/03/31 03:26:12;;;;;;;51.60;30.87;;;;;;;;;;5075961;28;20504;-72
2022/03/31 03:28:38;;;;;;;50.30;30.17;;;;;;;;;;5075835;28;20405;-72
2022/03/31 03:31:04;;;;;;;49.63;30.67;;;;;;;;;;5075723;28;20465;-71
2022/03/31 03:33:31;;;;;;;42.67;28.57;;;;;;;;;;5075906;28;20929;-72
2022/03/31 03:35:58;;;;;;;49.60;29.90;;;;;;;;;;5076043;28;20871;-72
2022/03/31 03:38:24;;;;;;;48.20;29.80;;;;;;;;;;5075741;28;20418;-72
2022/03/31 03:40:50;;;;;;;49.50;30.60;;;;;;;;;;5075572;28;20483;-72
2022/03/31 03:46:19;;;;;;;49.40;28.20;;;;;;;;;;5075816;28;20753;-71
2022/03/31 03:48:45;;;;;;;51.27;27.87;;;;;;;;;;5075750;28;20425;-72
2022/03/31 03:51:11;;;;;;;51.87;31.10;;;;;;;;;;5075225;28;20405;-72
2022/03/31 03:53:37;;;;;;;48.13;30.83;;;;;;;;;;5075156;28;20413;-72
2022/03/31 03:56:03;;;;;;;54.70;31.80;;;;;;;;;;5075702;28;20401;-72
2022/03/31 03:58:29;;;;;;;53.37;30.00;;;;;;;;;;5075146;28;20897;-72
2022/03/31 04:00:55;;;;;;;48.27;30.90;;;;;;;;;;5075127;28;20506;-71
2022/03/31 04:03:21;;;;;;;50.10;30.20;;;;;;;;;;5057365;28;20537;-72
2022/03/31 04:05:47;;;;;;;55.13;32.23;;;;;;;;;;5075548;28;20430;-71
2022/03/31 04:08:14;;;;;;;53.43;32.40;;;;;;;;;;5075247;28;20486;-72
2022/03/31 04:10:40;;;;;;;57.43;33.10;;;;;;;;;;5074896;28;20783;-71
2022/03/31 04:16:10;;;;;;;53.40;31.47;;;;;;;;;;5075201;28;20388;-71
2022/03/31 04:18:36;;;;;;;57.27;32.90;;;;;;;;;;5075223;28;20762;-71
2022/03/31 04:21:02;;;;;;;51.70;32.40;;;;;;;;;;5074690;28;20538;-72
2022/03/31 04:23:28;;;;;;;49.97;32.03;;;;;;;;;;5075037;28;20410;-71
2022/03/31 04:25:54;;;;;;;53.93;32.80;;;;;;;;;;5074870;28;20413;-72
2022/03/31 04:28:20;;;;;;;53.87;33.30;;;;;;;;;;5074825;28;20421;-72
2022/03/31 04:30:47;;;;;;;49.80;29.70;;;;;;;;;;5074454;28;20454;-72
2022/03/31 04:33:13;;;;;;;44.30;28.43;;;;;;;;;;5075278;28;20422;-71
2022/03/31 04:35:39;;;;;;;55.70;30.03;;;;;;;;;;5074419;28;20920;-72
2022/03/31 04:38:05;;;;;;;48.33;29.30;;;;;;;;;;5074671;28;20409;-71
2022/03/31 04:40:32;;;;;;;50.83;28.70;;;;;;;;;;5056424;28;20484;-71
2022/03/31 04:42:58;;;;;;;46.70;28.43;;;;;;;;;;5074923;28;20424;-71
2022/03/31 04:45:24;;;;;;;47.63;29.47;;;;;;;;;;5074738;28;20875;-71
2022/03/31 04:47:50;;;;;;;52.47;30.30;;;;;;;;;;5074326;28;20418;-71
2022/03/31 04:50:16;;;;;;;49.20;30.60;;;;;;;;;;5074187;28;20503;-72
2022/03/31 04:52:42;;;;;;;50.73;31.73;;;;;;;;;;5074445;28;20414;-71
2022/03/31 04:55:08;;;;;;;49.63;29.33;;;;;;;;;;5073475;28;20426;-72
2022/03/31 04:57:34;;;;;;;45.93;29.80;;;;;;;;;;5074201;28;20505;-70
2022/03/31 05:00:00;;;;;;;49.17;30.57;;;;;;;;;;5074235;28;20445;-71
2022/03/31 05:02:26;;;;;;;52.47;31.83;;;;;;;;;;5074021;28;20420;-71
2022/03/31 05:04:52;;;;;;;49.10;32.07;;;;;;;;;;5074245;28;20948;-70
2022/03/31 05:07:18;;;;;;;47.50;31.47;;;;;;;;;;5074077;28;20907;-71
2022/03/31 05:09:45;;;;;;;58.63;30.50;;;;;;;;;;5074255;28;20417;-71
2022/03/31 05:12:12;;;;;;;47.53;30.17;;;;;;;;;;5074154;28;20409;-71
2022/03/31 05:14:39;;;;;;;49.20;29.97;;;;;;;;;;5073937;28;20504;-71
2022/03/31 05:17:05;;;;;;;50.33;30.60;;;;;;;;;;5074145;28;20471;-71
2022/03/31 05:19:31;;;;;;;54.17;31.50;;;;;;;;;;5073540;28;20464;-71
2022/03/31 05:21:57;;;;;;;49.73;30.20;;;;;;;;;;5074326;28;20418;-71
2022/03/31 05:24:24;;;;;;;49.17;29.43;;;;;;;;;;5073807;28;21009;-71
2022/03/31 05:26:53;;;;;;;62.93;32.10;;;;;;;;;;5073904;28;20764;-70
2022/03/31 05:29:20;;;;;;;51.93;30.33;;;;;;;;;;5073832;28;20420;-71
2022/03/31 05:31:46;;;;;;;57.93;31.13;;;;;;;;;;5073300;28;20972;-71
2022/03/31 05:34:12;;;;;;;50.87;30.93;;;;;;;;;;5073732;28;20409;-71
2022/03/31 05:36:38;;;;;;;54.93;34.63;;;;;;;;;;5073647;28;20762;-71
2022/03/31 05:39:04;;;;;;;57.50;33.20;;;;;;;;;;5072949;28;20420;-70
2022/03/31 05:41:31;;;;;;;52.30;30.40;;;;;;;;;;5073604;28;20428;-71
2022/03/31 05:43:57;;;;;;;62.20;31.43;;;;;;;;;;5073465;28;20405;-71
2022/03/31 05:46:23;;;;;;;47.50;28.90;;;;;;;;;;5073188;28;20925;-71
2022/03/31 05:48:50;;;;;;;50.00;30.07;;;;;;;;;;5073194;28;20901;-71
2022/03/31 05:51:16;;;;;;;52.03;31.93;;;;;;;;;;5073263;28;20459;-71
2022/03/31 05:53:42;;;;;;;61.30;30.73;;;;;;;;;;5073491;28;20417;-71
2022/03/31 05:56:08;;;;;;;58.93;32.80;;;;;;;;;;5073454;28;20780;-71
2022/03/31 05:58:35;;;;;;;50.37;29.50;;;;;;;;;;5073150;28;20464;-71
2022/03/31 06:01:01;;;;;;;57.87;31.87;;;;;;;;;;5072951;28;20475;-71
2022/03/31 06:03:27;;;;;;;56.10;31.20;;;;;;;;;;5073144;28;20414;-71
2022/03/31 06:05:53;;;;;;;53.33;31.07;;;;;;;;;;5072237;28;20425;-71
2022/03/31 06:08:19;;;;;;;54.37;31.20;;;;;;;;;;5073336;28;20449;-71
2022/03/31 06:10:45;;;;;;;56.47;32.50;;;;;;;;;;5073188;28;20507;-71
2022/03/31 06:16:15;;;;;;;51.40;29.10;;;;;;;;;;5072981;28;20439;-71
2022/03/31 06:18:42;;;;;;;56.77;30.80;;;;;;;;;;5073066;28;20414;-71
2022/03/31 06:21:08;;;;;;;49.33;30.73;;;;;;;;;;5072804;28;20522;-71
2022/03/31 06:23:33;;;;;;;56.50;30.70;;;;;;;;;;5072612;28;20807;-71
2022/03/31 06:25:59;;;;;;;51.67;31.80;;;;;;;;;;5054858;28;20428;-71
2022/03/31 06:28:28;;;;;;;56.27;32.90;;;;;;;;;;5073325;28;20949;-71
2022/03/31 06:30:54;;;;;;;65.83;33.47;;;;;;;;;;5072533;28;21044;-71
2022/03/31 06:33:21;;;;;;;63.37;32.20;;;;;;;;;;5072878;28;20505;-71
2022/03/31 06:35:49;;;;;;;58.97;33.47;;;;;;;;;;5072843;28;20421;-71
2022/03/31 06:38:15;;;;;;;55.43;32.40;;;;;;;;;;5072726;28;20913;-71
2022/03/31 06:40:41;;;;;;;49.90;31.57;;;;;;;;;;5072663;28;20523;-71
2022/03/31 06:46:11;;;;;;;61.47;31.40;;;;;;;;;;5072733;28;20759;-71
2022/03/31 06:48:37;;;;;;;49.83;29.67;;;;;;;;;;5072840;28;20432;-71
2022/03/31 06:51:04;;;;;;;59.87;30.67;;;;;;;;;;5072916;28;20389;-71
2022/03/31 06:53:31;;;;;;;54.20;30.57;;;;;;;;;;5072862;28;20509;-71
2022/03/31 06:55:57;;;;;;;52.80;30.70;;;;;;;;;;5072652;28;20406;-71
2022/03/31 06:58:25;;;;;;;54.67;31.00;;;;;;;;;;5072501;28;20801;-71
2022/03/31 07:00:52;;;;;;;60.17;32.30;;;;;;;;;;5072452;28;20472;-71
2022/03/31 07:03:18;;;;;;;62.53;31.97;;;;;;;;;;5072470;28;20906;-71
2022/03/31 07:05:44;;;;;;;51.17;31.40;;;;;;;;;;5072654;28;20426;-71
2022/03/31 07:08:10;;;;;;;50.50;29.37;;;;;;;;;;5072381;28;20421;-71
2022/03/31 07:10:36;;;;;;;62.70;31.57;;;;;;;;;;5072444;28;20572;-71
2022/03/31 07:13:02;;;;;;;60.83;34.23;;;;;;;;;;5072610;28;20414;-71
2022/03/31 07:15:28;;;;;;;54.57;31.37;;;;;;;;;;5072312;28;20782;-71
2022/03/31 07:17:55;;;;;;;51.60;31.40;;;;;;;;;;5074010;28;20440;-71
2022/03/31 07:20:21;;;;;;;56.80;33.13;;;;;;;;;;5076048;28;20475;-71
2022/03/31 07:22:47;;;;;;;57.07;32.13;;;;;;;;;;5076367;28;20583;-71
2022/03/31 07:25:14;;;;;;;60.40;33.17;;;;;;;;;;5076304;28;20421;-71
2022/03/31 07:27:40;;;;;;;60.27;31.17;;;;;;;;;;5075873;28;20889;-71
2022/03/31 07:30:07;;;;;;;62.60;32.20;;;;;;;;;;5075551;28;20495;-71
2022/03/31 07:32:33;;;;;;;59.47;33.90;;;;;;;;;;5075784;28;20414;-71
2022/03/31 07:35:00;;;;;;;64.80;34.27;;;;;;;;;;5076008;28;20429;-71
2022/03/31 07:37:26;;;;;;;60.13;33.87;;;;;;;;;;5075614;28;20821;-71
2022/03/31 07:39:52;;;;;;;58.90;33.83;;;;;;;;;;5076218;28;20461;-71
2022/03/31 07:42:18;;;;;;;57.77;32.37;;;;;;;;;;5057667;28;20869;-71
2022/03/31 07:44:44;;;;;;;63.07;30.73;;;;;;;;;;5075709;28;20417;-71
2022/03/31 07:47:10;;;;;;;54.90;32.07;;;;;;;;;;5075839;28;20817;-73
2022/03/31 07:49:36;;;;;;;72.77;34.23;;;;;;;;;;5075778;28;20475;-71
2022/03/31 07:52:03;;;;;;;58.17;30.07;;;;;;;;;;5075555;28;20421;-72
2022/03/31 07:54:29;;;;;;;60.37;33.50;;;;;;;;;;5076508;28;20426;-73
2022/03/31 07:56:55;;;;;;;55.17;30.73;;;;;;;;;;5075642;28;20482;-72
2022/03/31 07:59:25;;;;;;;59.90;32.13;;;;;;;;;;5075470;28;20433;-72
2022/03/31 08:01:52;;;;;;;61.73;31.17;;;;;;;;;;5075550;28;20406;-72
2022/03/31 08:04:18;;;;;;;53.20;30.47;;;;;;;;;;5075406;28;20759;-72
2022/03/31 08:06:44;;;;;;;51.73;29.40;;;;;;;;;;5075587;28;20988;-72
2022/03/31 08:09:15;;;;;;;53.83;30.30;;;;;;;;;;5075505;28;20509;-72
2022/03/31 08:11:43;;;;;;;61.37;33.40;;;;;;;;;;5075398;28;20401;-72
2022/03/31 08:14:09;;;;;;;59.53;34.20;;;;;;;;;;5075130;28;20413;-72
2022/03/31 08:16:35;;;;;;;62.47;31.33;;;;;;;;;;5075636;28;20406;-72
2022/03/31 08:19:01;;;;;;;64.13;31.30;;;;;;;;;;5073899;28;20904;-72
2022/03/31 08:21:27;;;;;;;63.27;31.90;;;;;;;;;;5074546;28;20479;-72
2022/03/31 08:23:53;;;;;;;66.70;30.53;;;;;;;;;;5074747;28;20410;-72
2022/03/31 08:26:19;;;;;;;64.30;33.30;;;;;;;;;;5074967;28;20425;-72
2022/03/31 08:28:45;;;;;;;65.33;31.93;;;;;;;;;;5073638;28;20409;-72
2022/03/31 08:31:11;;;;;;;58.67;32.33;;;;;;;;;;5074525;28;20477;-72
2022/03/31 08:33:38;;;;;;;56.37;30.47;;;;;;;;;;5074786;28;20421;-72
2022/03/31 08:36:05;;;;;;;63.27;31.57;;;;;;;;;;5074637;28;21043;-72
2022/03/31 08:38:30;;;;;;;59.53;31.30;;;;;;;;;;5074563;28;20429;-73
2022/03/31 08:40:57;;;;;;;57.57;32.30;;;;;;;;;;5074377;28;20469;-72
2022/03/31 08:43:23;;;;;;;62.83;31.67;;;;;;;;;;5074785;28;20416;-72
2022/03/31 08:45:54;;;;;;;55.90;29.20;;;;;;;;;;5074397;28;20425;-72
2022/03/31 08:48:21;;;;;;;64.33;31.60;;;;;;;;;;5074875;28;20456;-73
2022/03/31 08:50:47;;;;;;;60.33;30.80;;;;;;;;;;5074422;28;20413;-72
2022/03/31 08:53:13;;;;;;;55.33;28.50;;;;;;;;;;5074490;28;20445;-72
2022/03/31 08:55:39;;;;;;;61.63;31.90;;;;;;;;;;5074050;28;20439;-72
2022/03/31 08:58:05;;;;;;;63.17;31.37;;;;;;;;;;5074127;28;20465;-72
2022/03/31 09:00:31;;;;;;;52.73;29.50;;;;;;;;;;5073860;28;20487;-72
2022/03/31 09:06:01;;;;;;;55.87;28.63;;;;;;;;;;5073730;28;20409;-72
2022/03/31 09:08:27;;;;;;;51.37;29.27;;;;;;;;;;5073357;28;20913;-72
2022/03/31 09:10:58;;;;;;;62.17;31.47;;;;;;;;;;5074127;28;20414;-72
2022/03/31 09:13:31;;;;;;;57.20;30.00;;;;;;;;;;5074089;28;20426;-72
2022/03/31 09:16:03;;;;;;;55.80;29.40;;;;;;;;;;5074183;28;20398;-72
2022/03/31 09:18:30;;;;;;;55.77;30.30;;;;;;;;;;5073842;28;20414;-72
2022/03/31 09:20:57;;;;;;;54.50;28.80;;;;;;;;;;5073744;28;20476;-72
2022/03/31 09:23:25;;;;;;;63.90;27.60;;;;;;;;;;5073625;28;20843;-72
2022/03/31 09:25:51;;;;;;;56.53;30.50;;;;;;;;;;5073356;28;20491;-73
2022/03/31 09:28:21;;;;;;;54.90;30.17;;;;;;;;;;5073689;28;20420;-67
2022/03/31 09:30:54;;;;;;;64.67;31.17;;;;;;;;;;5073480;28;20465;-68
2022/03/31 09:33:26;;;;;;;57.93;30.43;;;;;;;;;;5073769;28;20449;-72
2022/03/31 09:36:01;;;;;;;75.43;32.37;;;;;;;;;;5073645;28;20422;-72
2022/03/31 09:38:27;;;;;;;60.80;31.77;;;;;;;;;;5073760;28;20420;-72
2022/03/31 09:40:54;;;;;;;61.50;31.10;;;;;;;;;;5073198;28;20473;-73
2022/03/31 09:43:20;;;;;;;87.10;41.77;;;;;;;;;;5073685;28;20424;-72
2022/03/31 09:45:46;;;;;;;79.50;39.27;;;;;;;;;;5073416;28;20567;-72
2022/03/31 09:48:24;;;;;;;70.00;34.93;;;;;;;;;;5073169;28;20901;-72
2022/03/31 09:50:50;;;;;;;70.33;31.40;;;;;;;;;;5073071;28;20410;-73
2022/03/31 09:53:17;;;;;;;65.47;33.00;;;;;;;;;;5073408;28;20527;-73
2022/03/31 09:55:47;;;;;;;53.43;27.60;;;;;;;;;;5073170;28;20409;-75
2022/03/31 09:58:19;;;;;;;56.47;30.63;;;;;;;;;;5073225;28;20413;-74
2022/03/31 10:00:46;;;;;;;54.43;27.40;;;;;;;;;;5054906;28;20968;-67
2022/03/31 10:03:15;;;;;;;25.63;15.67;;;;;;;;;;5073023;28;20754;-74
2022/03/31 10:05:42;;;;;;;36.73;18.50;;;;;;;;;;5073014;28;20474;-73
2022/03/31 10:08:12;;;;;;;26.80;13.93;;;;;;;;;;5055023;28;20425;-73
2022/03/31 10:10:38;;;;;;;88.90;45.67;;;;;;;;;;5073555;28;20482;-73
2022/03/31 10:13:11;;;;;;;23.77;15.37;;;;;;;;;;5073195;28;20420;-72
2022/03/31 10:15:37;;;;;;;35.70;15.60;;;;;;;;;;5072632;28;20455;-72
2022/03/31 10:18:04;;;;;;;20.97;14.10;;;;;;;;;;5073029;28;20455;-72
2022/03/31 10:20:30;;;;;;;36.90;19.60;;;;;;;;;;5072922;28;20516;-72
2022/03/31 10:25:59;;;;;;;38.73;23.47;;;;;;;;;;5073003;28;20393;-72
2022/03/31 10:28:25;;;;;;;39.47;23.40;;;;;;;;;;5072878;28;20418;-72
2022/03/31 10:30:56;;;;;;;42.97;25.77;;;;;;;;;;5072403;28;20964;-72
2022/03/31 10:33:29;;;;;;;58.83;33.30;;;;;;;;;;5054850;28;20422;-72
2022/03/31 10:36:09;;;;;;;38.73;23.10;;;;;;;;;;5072875;28;20441;-71
2022/03/31 10:38:35;;;;;;;35.80;21.77;;;;;;;;;;5072924;28;20480;-72
2022/03/31 10:41:08;;;;;;;39.50;22.30;;;;;;;;;;5072688;28;20473;-72
2022/03/31 10:43:34;;;;;;;39.57;23.77;;;;;;;;;;5072706;28;20402;-68
2022/03/31 10:46:04;;;;;;;40.13;22.33;;;;;;;;;;5072385;28;20504;-72
2022/03/31 10:48:31;;;;;;;41.30;20.73;;;;;;;;;;5072355;28;20912;-73
2022/03/31 10:51:04;;;;;;;29.60;19.70;;;;;;;;;;5072614;28;20924;-72
2022/03/31 10:53:31;;;;;;;33.97;21.00;;;;;;;;;;5076077;28;20419;-72
2022/03/31 10:55:58;;;;;;;34.43;21.73;;;;;;;;;;5076564;28;20426;-72
2022/03/31 10:58:28;;;;;;;30.60;20.70;;;;;;;;;;5076705;28;20505;-73
2022/03/31 11:00:58;;;;;;;31.27;19.43;;;;;;;;;;5076426;28;20469;-73
2022/03/31 11:03:24;;;;;;;23.33;16.90;;;;;;;;;;5076314;28;20937;-72
2022/03/31 11:05:50;;;;;;;24.40;15.73;;;;;;;;;;5076317;28;20460;-72
2022/03/31 11:08:17;;;;;;;27.07;17.27;;;;;;;;;;5076551;28;20451;-72
2022/03/31 11:10:49;;;;;;;25.77;16.80;;;;;;;;;;5076433;28;20782;-72
2022/03/31 11:13:18;;;;;;;24.10;15.77;;;;;;;;;;5058979;28;20421;-73
2022/03/31 11:15:47;;;;;;;25.80;17.07;;;;;;;;;;5076105;28;20425;-72
2022/03/31 11:18:14;;;;;;;32.53;16.07;;;;;;;;;;5075947;28;20406;-72
2022/03/31 11:20:40;;;;;;;22.40;16.00;;;;;;;;;;5075790;28;20476;-73
2022/03/31 11:23:09;;;;;;;25.23;15.40;;;;;;;;;;5076209;28;20925;-72
2022/03/31 11:25:35;;;;;;;28.70;18.27;;;;;;;;;;5076102;28;20441;-72
2022/03/31 11:28:08;;;;;;;31.03;18.57;;;;;;;;;;5076060;28;20420;-73
2022/03/31 11:30:34;;;;;;;29.67;16.80;;;;;;;;;;5075302;28;20503;-73
2022/03/31 11:33:02;;;;;;;26.33;16.70;;;;;;;;;;5076166;28;20526;-72
2022/03/31 11:35:29;;;;;;;26.57;17.23;;;;;;;;;;5075790;28;20401;-72
2022/03/31 11:37:57;;;;;;;30.33;17.20;;;;;;;;;;5075866;28;20474;-72
2022/03/31 11:40:24;;;;;;;29.00;16.80;;;;;;;;;;5075635;28;20473;-73
2022/03/31 11:42:51;;;;;;;27.50;18.87;;;;;;;;;;5075786;28;20975;-72
2022/03/31 11:45:24;;;;;;;31.97;22.57;;;;;;;;;;5075653;28;20414;-65
2022/03/31 11:47:57;;;;;;;29.70;18.90;;;;;;;;;;5075671;28;20417;-72
2022/03/31 11:50:24;;;;;;;37.13;19.53;;;;;;;;;;5075744;28;20415;-71
2022/03/31 11:52:50;;;;;;;26.80;17.97;;;;;;;;;;5075769;28;20402;-72
2022/03/31 11:55:16;;;;;;;25.27;16.93;;;;;;;;;;5076034;28;20448;-71
2022/03/31 11:57:51;;;;;;;31.50;19.27;;;;;;;;;;5075116;28;20441;-72
2022/03/31 12:00:17;;;;;;;31.47;19.07;;;;;;;;;;5076051;28;20774;-72
2022/03/31 12:02:43;;;;;;;30.00;18.80;;;;;;;;;;5075477;28;20417;-72
2022/03/31 12:05:13;;;;;;;28.60;17.53;;;;;;;;;;5073802;28;20512;-72
2022/03/31 12:07:40;;;;;;;27.70;18.10;;;;;;;;;;5075041;28;20483;-73
2022/03/31 12:10:06;;;;;;;25.00;16.43;;;;;;;;;;5074880;28;20953;-72
2022/03/31 12:12:32;;;;;;;29.17;17.37;;;;;;;;;;5075650;28;20422;-72
2022/03/31 12:14:59;;;;;;;26.20;16.90;;;;;;;;;;5075136;28;20501;-72
2022/03/31 12:17:25;;;;;;;23.23;16.67;;;;;;;;;;5074840;28;20422;-72
2022/03/31 12:19:51;;;;;;;25.50;16.33;;;;;;;;;;5075167;28;20581;-72
2022/03/31 12:22:17;;;;;;;27.63;16.40;;;;;;;;;;5075073;28;20784;-72
2022/03/31 12:24:50;;;;;;;28.03;16.70;;;;;;;;;;5075005;28;20410;-71
2022/03/31 12:27:18;;;;;;;25.40;16.20;;;;;;;;;;5074963;28;20410;-72
2022/03/31 12:29:44;;;;;;;26.20;16.90;;;;;;;;;;5075089;28;20482;-72
2022/03/31 12:32:10;;;;;;;28.67;16.77;;;;;;;;;;5074701;28;20565;-72
2022/03/31 12:34:38;;;;;;;23.20;17.33;;;;;;;;;;5074744;28;20456;-73
2022/03/31 12:37:04;;;;;;;30.10;16.47;;;;;;;;;;5074891;28;20501;-72
2022/03/31 12:39:30;;;;;;;25.33;15.70;;;;;;;;;;5074373;28;20859;-72
2022/03/31 12:41:57;;;;;;;26.03;17.30;;;;;;;;;;5074932;28;20521;-72
2022/03/31 12:44:26;;;;;;;23.40;14.83;;;;;;;;;;5075169;28;20488;-72
2022/03/31 12:46:55;;;;;;;20.70;13.90;;;;;;;;;;5074491;28;20982;-72
2022/03/31 12:49:22;;;;;;;17.53;12.73;;;;;;;;;;5074344;28;20905;-72
2022/03/31 12:51:52;;;;;;;24.00;14.50;;;;;;;;;;5074422;28;20493;-72
2022/03/31 12:54:29;;;;;;;23.20;13.87;;;;;;;;;;5074661;28;20463;-72
2022/03/31 12:56:59;;;;;;;18.57;13.27;;;;;;;;;;5074293;28;20540;-73
2022/03/31 12:59:26;;;;;;;19.23;12.60;;;;;;;;;;5074032;28;20563;-72
2022/03/31 13:01:57;;;;;;;22.03;12.37;;;;;;;;;;5074223;28;20426;-73
2022/03/31 13:04:23;;;;;;;32.33;15.20;;;;;;;;;;5074264;28;20411;-72
2022/03/31 13:06:49;;;;;;;21.40;13.03;;;;;;;;;;5074395;28;20426;-72
2022/03/31 13:09:15;;;;;;;22.27;13.63;;;;;;;;;;5074280;28;20424;-72
2022/03/31 13:11:43;;;;;;;17.53;13.20;;;;;;;;;;5074145;28;20928;-72
2022/03/31 13:14:10;;;;;;;22.63;14.20;;;;;;;;;;5074383;28;20509;-72
2022/03/31 13:16:37;;;;;;;24.07;13.57;;;;;;;;;;5073754;28;20498;-72
2022/03/31 13:19:03;;;;;;;18.87;12.53;;;;;;;;;;5073865;28;20897;-73
2022/03/31 13:21:29;;;;;;;18.70;13.00;;;;;;;;;;5073496;28;20522;-72
2022/03/31 13:23:55;;;;;;;14.27;11.30;;;;;;;;;;5074081;28;20825;-72
2022/03/31 13:26:21;;;;;;;17.80;11.37;;;;;;;;;;5073585;28;20924;-72
2022/03/31 13:28:47;;;;;;;17.13;10.70;;;;;;;;;;5073668;28;20410;-72
2022/03/31 13:31:13;;;;;;;13.87;10.60;;;;;;;;;;5073370;28;20465;-72
2022/03/31 13:33:39;;;;;;;11.60;9.10;;;;;;;;;;5073786;28;20471;-72
2022/03/31 13:36:05;;;;;;;20.57;10.70;;;;;;;;;;5073367;28;20906;-72
2022/03/31 13:38:34;;;;;;;13.13;8.90;;;;;;;;;;5073814;28;20441;-72
2022/03/31 13:41:00;;;;;;;14.70;9.50;;;;;;;;;;5073511;28;20504;-72
2022/03/31 13:43:26;;;;;;;14.53;9.17;;;;;;;;;;5073674;28;20512;-72
2022/03/31 13:45:52;;;;;;;9.47;8.37;;;;;;;;;;5073495;28;20418;-72
2022/03/31 13:48:18;;;;;;;9.20;7.67;;;;;;;;;;5073652;28;20413;-73
2022/03/31 13:50:45;;;;;;;10.13;8.07;;;;;;;;;;5073366;28;20414;-72
2022/03/31 13:55:56;;;;;;;14.37;7.87;;;;;;;;;;5073491;28;20405;-72
2022/03/31 14:01:13;;;;;;;9.57;8.47;;;;;;;;;;5073375;28;20469;-72
2022/03/31 14:03:43;;;;;;;11.47;8.77;;;;;;;;;;5073513;28;20467;-73
2022/03/31 14:06:09;;;;;;;12.50;7.93;;;;;;;;;;5072954;28;20893;-72
2022/03/31 14:08:35;;;;;;;9.20;8.10;;;;;;;;;;5073668;28;20755;-72
2022/03/31 14:11:05;;;;;;;7.57;6.73;;;;;;;;;;5073327;28;20418;-72
2022/03/31 14:13:34;;;;;;;9.93;8.47;;;;;;;;;;5073036;28;20422;-73
2022/03/31 14:16:02;;;;;;;10.87;6.90;;;;;;;;;;5073354;28;20421;-73
2022/03/31 14:18:30;;;;;;;9.23;7.30;;;;;;;;;;5073125;28;20914;-73
2022/03/31 14:20:56;;;;;;;13.23;7.17;;;;;;;;;;5072600;28;20466;-72
2022/03/31 14:23:22;;;;;;;9.83;6.83;;;;;;;;;;5073459;28;20421;-73
2022/03/31 14:25:48;;;;;;;8.50;6.00;;;;;;;;;;5072898;28;20428;-72
2022/03/31 14:28:14;;;;;;;10.43;5.63;;;;;;;;;;5071913;28;20896;-73
2022/03/31 14:30:42;;;;;;;8.50;6.63;;;;;;;;;;5072684;28;20534;-72
2022/03/31 14:33:08;;;;;;;6.70;6.20;;;;;;;;;;5072858;28;20504;-72
2022/03/31 14:35:35;;;;;;;8.13;6.40;;;;;;;;;;5072801;28;20459;-72
2022/03/31 14:38:01;;;;;;;8.67;7.07;;;;;;;;;;5073070;28;20413;-72
2022/03/31 14:40:27;;;;;;;11.03;7.20;;;;;;;;;;5072909;28;20871;-72
2022/03/31 14:42:54;;;;;;;8.20;7.67;;;;;;;;;;5072709;28;20409;-72